Absaraka, North Dakota
Current Conditions -  °F | °C
As of 7:53 PM on Saturday 25 Oct 2014 (Local Time) from KFAR Reporting Station
Clear Clear  
Wind Chill: 46°   Ceiling: Unl
Heat Index: 46°   Visibility: 10mi
Dew Point: 24°   Wind: 3mph
Humidity: 42%   Direction: 200°SSW
Pressure: 30.04"   Gusts: NA
Location:  46.98°N, 97.39°W
Report Text: KFAR 260053Z 20003KT 10SM CLR 08/M04 A3004 RMK AO2 SLP179 T00781044
Loading
Personal Weather Stations






























Interactive Weather Map
Tropical Storm Tracking
New forecast layout! Learn more

10-Day Weather Forecast

Advertisements
Track Severe Weather on mobile